Time;durP1;ratioP1;P1;durP2;ratioP2;P2;SDS_P1;SDS_P2;PMS_P1;PMS_P2;Temp;Humidity;BMP_temperature;BMP_pressure;BME280_temperature;BME280_humidity;BME280_pressure;Samples;Min_cycle;Max_cycle;Signal;HPM_P1;HPM_P2
2021/08/25 00:00:59;;;;;;;3.22;2.63;;;14.70;99.90;;;;;;2072448;28;20029;-69
2021/08/25 00:01:59;;;;;;;5.13;2.47;;;14.70;99.90;;;;;;2071572;28;20561;-69
2021/08/25 00:03:00;;;;;;;5.60;2.70;;;14.60;99.90;;;;;;2071673;28;20374;-69
2021/08/25 00:04:01;;;;;;;4.97;3.25;;;14.60;99.90;;;;;;2072295;28;20018;-69
2021/08/25 00:05:03;;;;;;;3.85;3.05;;;14.60;99.90;;;;;;2072206;28;20018;-69
2021/08/25 00:06:04;;;;;;;3.90;2.90;;;14.60;99.90;;;;;;2071849;28;20382;-69
2021/08/25 00:07:08;;;;;;;3.47;2.58;;;14.60;99.90;;;;;;2072458;28;20026;-69
2021/08/25 00:08:09;;;;;;;4.15;2.72;;;14.60;99.90;;;;;;2071687;28;20022;-69
2021/08/25 00:09:09;;;;;;;3.25;2.58;;;14.60;99.90;;;;;;2072402;28;20064;-69
2021/08/25 00:10:10;;;;;;;7.22;3.35;;;14.60;99.90;;;;;;2071674;28;20096;-69
2021/08/25 00:11:11;;;;;;;3.40;2.50;;;14.50;99.90;;;;;;2071707;28;20172;-69
2021/08/25 00:12:12;;;;;;;3.72;2.53;;;14.50;99.90;;;;;;2071879;28;20030;-69
2021/08/25 00:13:12;;;;;;;4.15;3.00;;;14.50;99.90;;;;;;2073020;28;20025;-69
2021/08/25 00:14:13;;;;;;;4.45;2.90;;;14.50;99.90;;;;;;2079513;28;20013;-69
2021/08/25 00:15:14;;;;;;;4.93;2.92;;;14.50;99.90;;;;;;2072281;28;20084;-69
2021/08/25 00:16:15;;;;;;;4.15;2.55;;;14.50;99.90;;;;;;2071603;28;20049;-69
2021/08/25 00:17:15;;;;;;;2.83;2.30;;;14.40;99.90;;;;;;2072442;28;20017;-69
2021/08/25 00:18:16;;;;;;;2.83;2.28;;;14.50;99.90;;;;;;2071924;28;20033;-69
2021/08/25 00:19:17;;;;;;;3.38;2.50;;;14.40;99.90;;;;;;2072190;28;20143;-69
2021/08/25 00:20:18;;;;;;;3.10;2.53;;;14.40;99.90;;;;;;2072062;28;20025;-69
2021/08/25 00:21:18;;;;;;;4.30;2.42;;;14.40;99.90;;;;;;2071694;28;20029;-69
2021/08/25 00:22:19;;;;;;;8.85;3.28;;;14.40;99.90;;;;;;2071392;28;20037;-69
2021/08/25 00:23:20;;;;;;;2.67;2.42;;;14.40;99.90;;;;;;2072006;28;20112;-69
2021/08/25 00:24:21;;;;;;;4.20;2.35;;;14.40;99.90;;;;;;2071872;28;20029;-69
2021/08/25 00:25:22;;;;;;;4.85;2.65;;;14.40;99.90;;;;;;2071915;28;20037;-69
2021/08/25 00:26:22;;;;;;;4.03;2.83;;;14.40;99.90;;;;;;2071752;28;20049;-69
2021/08/25 00:27:23;;;;;;;5.22;2.92;;;14.30;99.90;;;;;;2071723;28;20528;-69
2021/08/25 00:28:24;;;;;;;3.10;2.75;;;14.30;99.90;;;;;;2071577;28;20033;-69
2021/08/25 00:29:24;;;;;;;4.32;2.63;;;14.30;99.90;;;;;;2074657;28;20033;-69
2021/08/25 00:30:25;;;;;;;4.40;2.65;;;14.30;99.90;;;;;;2071918;28;20080;-69
2021/08/25 00:31:26;;;;;;;2.92;2.55;;;14.30;99.90;;;;;;2071347;28;20030;-69
2021/08/25 00:32:26;;;;;;;5.82;2.78;;;14.30;99.90;;;;;;2072011;28;20061;-69
2021/08/25 00:33:27;;;;;;;3.65;2.50;;;14.30;99.90;;;;;;2071462;28;20026;-69
2021/08/25 00:34:27;;;;;;;4.30;2.90;;;14.30;99.90;;;;;;2071413;28;20029;-69
2021/08/25 00:35:28;;;;;;;5.32;2.90;;;14.30;99.90;;;;;;2071135;28;20105;-69
2021/08/25 00:36:28;;;;;;;4.07;2.65;;;14.30;99.90;;;;;;2071744;28;20098;-70
2021/08/25 00:37:29;;;;;;;2.92;2.60;;;14.20;99.90;;;;;;2071791;28;20026;-69
2021/08/25 00:38:29;;;;;;;3.30;2.35;;;14.20;99.90;;;;;;2071701;28;20453;-69
2021/08/25 00:39:30;;;;;;;4.60;2.83;;;14.20;99.90;;;;;;2071776;28;20543;-69
2021/08/25 00:40:31;;;;;;;2.88;2.55;;;14.20;99.90;;;;;;2071497;28;20088;-69
2021/08/25 00:41:32;;;;;;;4.43;2.78;;;14.20;99.90;;;;;;2071432;28;20038;-69
2021/08/25 00:42:32;;;;;;;4.30;2.97;;;14.20;99.90;;;;;;2071837;28;20041;-69
2021/08/25 00:43:33;;;;;;;4.07;3.13;;;14.20;99.90;;;;;;2071171;28;20647;-69
2021/08/25 00:44:33;;;;;;;6.38;2.65;;;14.20;99.90;;;;;;2071959;28;20486;-69
2021/08/25 00:45:39;;;;;;;5.50;2.75;;;14.20;99.90;;;;;;2074738;28;20063;-69
2021/08/25 00:46:39;;;;;;;5.28;3.35;;;14.10;99.90;;;;;;2078808;28;20037;-69
2021/08/25 00:47:41;;;;;;;3.88;2.88;;;14.20;99.90;;;;;;2071124;28;20458;-69
2021/08/25 00:48:46;;;;;;;3.78;3.13;;;14.10;99.90;;;;;;2070787;28;20026;-69
2021/08/25 00:49:47;;;;;;;3.17;2.50;;;14.10;99.90;;;;;;2062982;28;20026;-69
2021/08/25 00:50:54;;;;;;;3.00;2.67;;;14.10;99.90;;;;;;2071608;28;20056;-69
2021/08/25 00:51:54;;;;;;;4.57;2.95;;;14.10;99.90;;;;;;2071458;28;20030;-69
2021/08/25 00:52:55;;;;;;;7.90;3.33;;;14.10;99.90;;;;;;2071183;28;20030;-69
2021/08/25 00:53:57;;;;;;;5.68;2.70;;;14.10;99.90;;;;;;2069381;28;20038;-69
2021/08/25 00:54:59;;;;;;;3.35;2.72;;;14.10;99.90;;;;;;2075944;28;20037;-69
2021/08/25 00:56:00;;;;;;;4.93;2.90;;;14.10;99.90;;;;;;2071289;28;20057;-69
2021/08/25 00:57:01;;;;;;;3.60;2.75;;;14.00;99.90;;;;;;2071603;28;20029;-69
2021/08/25 00:58:03;;;;;;;3.72;2.70;;;14.00;99.90;;;;;;2071552;28;20057;-69
2021/08/25 00:59:06;;;;;;;2.97;2.65;;;14.00;99.90;;;;;;2071974;28;20037;-69
2021/08/25 01:00:08;;;;;;;4.50;3.28;;;14.00;99.90;;;;;;2071266;28;20045;-69
2021/08/25 01:01:32;;;;;;;5.68;3.08;;;14.00;99.90;;;;;;2071935;28;20018;-69
2021/08/25 01:02:59;;;;;;;8.82;3.10;;;14.00;99.90;;;;;;2063618;28;20061;-69
2021/08/25 01:04:05;;;;;;;3.35;2.85;;;13.90;99.90;;;;;;2063560;28;20153;-69
2021/08/25 01:05:08;;;;;;;4.15;3.47;;;13.90;99.90;;;;;;2069610;28;20018;-69
2021/08/25 01:06:10;;;;;;;3.75;2.72;;;13.90;99.90;;;;;;2071588;28;20028;-69
2021/08/25 01:07:12;;;;;;;5.60;2.72;;;13.90;99.90;;;;;;2071934;28;20022;-69
2021/08/25 01:08:14;;;;;;;4.85;3.10;;;13.90;99.90;;;;;;2071110;28;20033;-69
2021/08/25 01:09:14;;;;;;;3.15;2.85;;;13.90;99.90;;;;;;2070791;28;20025;-69
2021/08/25 01:10:23;;;;;;;6.57;2.80;;;13.90;99.90;;;;;;2066244;28;20088;-69
2021/08/25 01:11:23;;;;;;;3.85;2.53;;;13.90;99.90;;;;;;2069058;28;20034;-69
2021/08/25 01:12:27;;;;;;;4.07;2.78;;;13.80;99.90;;;;;;2071383;28;20022;-69
2021/08/25 01:13:28;;;;;;;4.68;3.00;;;13.80;99.90;;;;;;2070746;28;20112;-69
2021/08/25 01:14:28;;;;;;;5.50;3.25;;;13.80;99.90;;;;;;2071583;28;20048;-69
2021/08/25 01:15:30;;;;;;;4.07;2.92;;;13.80;99.90;;;;;;2071703;28;20449;-69
2021/08/25 01:16:31;;;;;;;3.50;2.85;;;13.80;99.90;;;;;;2071482;28;20022;-69
2021/08/25 01:17:32;;;;;;;3.67;2.92;;;13.80;99.90;;;;;;2070135;28;20617;-69
2021/08/25 01:18:33;;;;;;;3.10;2.80;;;13.80;99.90;;;;;;2072283;28;20030;-69
2021/08/25 01:19:46;;;;;;;4.88;3.60;;;13.80;99.90;;;;;;2068274;28;20034;-69
2021/08/25 01:20:48;;;;;;;2.97;2.78;;;13.80;99.90;;;;;;2063734;28;20139;-69
2021/08/25 01:21:49;;;;;;;2.88;2.50;;;13.80;99.90;;;;;;2071139;28;20030;-69
2021/08/25 01:22:50;;;;;;;4.88;2.80;;;13.80;99.90;;;;;;2071219;28;20116;-69
2021/08/25 01:23:51;;;;;;;5.10;2.97;;;13.80;99.90;;;;;;2071524;28;20029;-69
2021/08/25 01:24:57;;;;;;;5.22;3.03;;;13.80;99.90;;;;;;2071329;28;20048;-69
2021/08/25 01:25:58;;;;;;;3.63;2.92;;;13.80;99.90;;;;;;2071282;28;20033;-69
2021/08/25 01:27:02;;;;;;;4.97;3.38;;;13.70;99.90;;;;;;2071699;28;20045;-69
2021/08/25 01:28:05;;;;;;;4.82;2.80;;;13.70;99.90;;;;;;2071070;28;20033;-69
2021/08/25 01:29:17;;;;;;;5.32;3.10;;;13.70;99.90;;;;;;2071749;28;20410;-69
2021/08/25 01:30:19;;;;;;;5.22;3.08;;;13.70;99.90;;;;;;2071641;28;20042;-69
2021/08/25 01:31:26;;;;;;;4.50;3.25;;;13.70;99.90;;;;;;2071752;28;20497;-69
2021/08/25 01:32:27;;;;;;;6.10;3.00;;;13.70;99.90;;;;;;2071255;28;20053;-69
2021/08/25 01:33:29;;;;;;;4.80;3.05;;;13.60;99.90;;;;;;2071183;28;20052;-69
2021/08/25 01:34:29;;;;;;;3.75;2.65;;;13.70;99.90;;;;;;2076553;28;20018;-69
2021/08/25 01:35:37;;;;;;;3.20;2.85;;;13.60;99.90;;;;;;2077540;28;20033;-69
2021/08/25 01:36:37;;;;;;;5.95;3.08;;;13.60;99.90;;;;;;2071275;28;20040;-69
2021/08/25 01:37:38;;;;;;;4.45;2.80;;;13.60;99.90;;;;;;2071401;28;20030;-69
2021/08/25 01:38:49;;;;;;;4.85;3.17;;;13.60;99.90;;;;;;2071401;28;20026;-69
2021/08/25 01:39:52;;;;;;;4.90;3.28;;;13.60;99.90;;;;;;2072018;28;20037;-69
2021/08/25 01:40:52;;;;;;;4.50;3.45;;;13.60;99.90;;;;;;2071470;28;20029;-69
2021/08/25 01:41:53;;;;;;;6.97;3.30;;;13.60;99.90;;;;;;2070757;28;20041;-69
2021/08/25 01:42:53;;;;;;;4.18;3.22;;;13.60;99.90;;;;;;2071059;28;20385;-69
2021/08/25 01:43:56;;;;;;;4.35;3.05;;;13.60;99.90;;;;;;2071812;28;20057;-69
2021/08/25 01:44:56;;;;;;;3.63;3.20;;;13.50;99.90;;;;;;2071433;28;20033;-69
2021/08/25 01:45:57;;;;;;;5.20;3.10;;;13.50;99.90;;;;;;2071711;28;20026;-69
2021/08/25 01:46:57;;;;;;;7.40;3.40;;;13.50;99.90;;;;;;2072888;28;20093;-69
2021/08/25 01:47:58;;;;;;;4.05;3.38;;;13.50;99.90;;;;;;2075910;28;20034;-69
2021/08/25 01:48:59;;;;;;;7.35;3.40;;;13.50;99.90;;;;;;2074271;28;20026;-69
2021/08/25 01:49:59;;;;;;;5.40;3.47;;;13.50;99.90;;;;;;2072015;28;20033;-69
2021/08/25 01:51:02;;;;;;;5.22;3.40;;;13.50;99.90;;;;;;2067617;28;20505;-69
2021/08/25 01:52:05;;;;;;;4.15;3.28;;;13.50;99.90;;;;;;2071946;28;20022;-69
2021/08/25 01:53:05;;;;;;;5.45;3.60;;;13.40;99.90;;;;;;2063851;28;20081;-69
2021/08/25 01:54:07;;;;;;;3.60;3.08;;;13.50;99.90;;;;;;2072290;28;20084;-69
2021/08/25 01:55:08;;;;;;;4.10;3.15;;;13.50;99.90;;;;;;2072969;28;20084;-69
2021/08/25 01:56:08;;;;;;;4.80;3.50;;;13.50;99.90;;;;;;2072992;28;20053;-69
2021/08/25 01:57:09;;;;;;;5.05;3.70;;;13.50;99.90;;;;;;2072883;28;20049;-69
2021/08/25 01:58:09;;;;;;;4.15;3.20;;;13.40;99.90;;;;;;2073208;28;20022;-69
2021/08/25 01:59:10;;;;;;;4.18;3.40;;;13.40;99.90;;;;;;2073223;28;20075;-69
2021/08/25 02:00:11;;;;;;;4.18;3.15;;;13.40;99.90;;;;;;2073099;28;20434;-69
2021/08/25 02:01:11;;;;;;;6.35;3.47;;;13.40;99.90;;;;;;2072952;28;20025;-69
2021/08/25 02:02:12;;;;;;;4.75;3.42;;;13.40;99.90;;;;;;2075803;28;20504;-69
2021/08/25 02:03:13;;;;;;;5.22;3.63;;;13.40;99.90;;;;;;2072399;28;20029;-69
2021/08/25 02:04:13;;;;;;;5.10;3.13;;;13.40;99.90;;;;;;2074450;28;20091;-69
2021/08/25 02:05:14;;;;;;;5.65;3.25;;;13.40;99.90;;;;;;2073337;28;20068;-69
2021/08/25 02:06:15;;;;;;;5.20;3.63;;;13.40;99.90;;;;;;2072742;28;20157;-69
2021/08/25 02:07:16;;;;;;;4.57;3.35;;;13.40;99.90;;;;;;2073158;28;20044;-69
2021/08/25 02:08:16;;;;;;;4.65;3.60;;;13.40;99.90;;;;;;2072943;28;20469;-69
2021/08/25 02:09:17;;;;;;;4.05;3.50;;;13.30;99.90;;;;;;2073149;28;20482;-69
2021/08/25 02:10:17;;;;;;;4.38;3.20;;;13.40;99.90;;;;;;2073071;28;20398;-69
2021/08/25 02:11:18;;;;;;;4.40;3.63;;;13.30;99.90;;;;;;2072749;28;20960;-69
2021/08/25 02:12:19;;;;;;;5.07;3.47;;;13.30;99.90;;;;;;2072458;28;20036;-69
2021/08/25 02:13:19;;;;;;;5.80;3.70;;;13.30;99.90;;;;;;2072402;28;20022;-69
2021/08/25 02:14:20;;;;;;;4.65;3.92;;;13.30;99.90;;;;;;2072878;28;20037;-69
2021/08/25 02:15:20;;;;;;;5.28;3.65;;;13.30;99.90;;;;;;2074766;28;20029;-69
2021/08/25 02:16:21;;;;;;;3.55;3.25;;;13.30;99.90;;;;;;2076150;28;20030;-69
2021/08/25 02:17:21;;;;;;;5.85;3.85;;;13.30;99.90;;;;;;2073117;28;20037;-69
2021/08/25 02:18:22;;;;;;;5.60;4.15;;;13.30;99.90;;;;;;2072700;28;20101;-69
2021/08/25 02:19:24;;;;;;;4.50;3.58;;;13.30;99.90;;;;;;2073212;28;20053;-69
2021/08/25 02:20:24;;;;;;;6.00;3.83;;;13.30;99.90;;;;;;2072987;28;20030;-69
2021/08/25 02:21:25;;;;;;;4.53;3.55;;;13.30;99.90;;;;;;2074992;28;20490;-69
2021/08/25 02:22:25;;;;;;;4.57;3.58;;;13.30;99.90;;;;;;2072629;28;20439;-69
2021/08/25 02:23:26;;;;;;;5.88;3.10;;;13.30;99.90;;;;;;2072975;28;20057;-69
2021/08/25 02:24:27;;;;;;;4.25;3.35;;;13.20;99.90;;;;;;2072638;28;20034;-69
2021/08/25 02:25:27;;;;;;;4.43;4.00;;;13.20;99.90;;;;;;2073154;28;20474;-69
2021/08/25 02:26:28;;;;;;;4.53;3.90;;;13.20;99.90;;;;;;2072820;28;20058;-69
2021/08/25 02:27:28;;;;;;;7.18;3.90;;;13.20;99.90;;;;;;2072621;28;20030;-69
2021/08/25 02:28:29;;;;;;;10.63;4.40;;;13.20;99.90;;;;;;2072900;28;20041;-69
2021/08/25 02:29:29;;;;;;;5.85;3.70;;;13.20;99.90;;;;;;2072759;28;20030;-69
2021/08/25 02:30:30;;;;;;;4.63;3.30;;;13.20;99.90;;;;;;2072787;28;20104;-69
2021/08/25 02:31:31;;;;;;;6.22;3.38;;;13.20;99.90;;;;;;2072406;28;20490;-69
2021/08/25 02:32:31;;;;;;;8.07;3.75;;;13.20;99.90;;;;;;2072902;28;20036;-69
2021/08/25 02:33:32;;;;;;;6.25;3.55;;;13.20;99.90;;;;;;2072539;28;20486;-69
2021/08/25 02:34:32;;;;;;;4.35;3.45;;;13.20;99.90;;;;;;2072826;28;20072;-69
2021/08/25 02:35:33;;;;;;;6.47;3.58;;;13.20;99.90;;;;;;2072447;28;20105;-69
2021/08/25 02:36:34;;;;;;;7.78;3.88;;;13.20;99.90;;;;;;2073006;28;20032;-69
2021/08/25 02:37:34;;;;;;;3.92;3.35;;;13.10;99.90;;;;;;2072744;28;20033;-69
2021/08/25 02:38:36;;;;;;;5.32;3.47;;;13.10;99.90;;;;;;2072570;28;20030;-69
2021/08/25 02:39:37;;;;;;;5.20;3.80;;;13.10;99.90;;;;;;2072616;28;20029;-69
2021/08/25 02:40:38;;;;;;;5.13;3.58;;;13.10;99.90;;;;;;2073210;28;20041;-69
2021/08/25 02:41:38;;;;;;;4.90;3.63;;;13.10;99.90;;;;;;2072368;28;20033;-69
2021/08/25 02:42:40;;;;;;;4.78;3.75;;;13.10;99.90;;;;;;2072484;28;20041;-69
2021/08/25 02:43:40;;;;;;;6.82;3.78;;;13.10;99.90;;;;;;2072679;28;20088;-69
2021/08/25 02:44:41;;;;;;;5.80;3.83;;;13.10;99.90;;;;;;2073020;28;20084;-69
2021/08/25 02:45:41;;;;;;;5.05;3.67;;;13.10;99.90;;;;;;2072589;28;20041;-69
2021/08/25 02:46:42;;;;;;;4.68;3.58;;;13.10;99.90;;;;;;2072738;28;20049;-69
2021/08/25 02:47:42;;;;;;;5.60;3.75;;;13.10;99.90;;;;;;2072222;28;20040;-69
2021/08/25 02:48:43;;;;;;;5.25;3.75;;;13.10;99.90;;;;;;2075798;28;20080;-69
2021/08/25 02:49:43;;;;;;;7.05;3.88;;;13.00;99.90;;;;;;2064579;28;20030;-69
2021/08/25 02:50:44;;;;;;;4.30;3.22;;;13.00;99.90;;;;;;2072790;28;20068;-69
2021/08/25 02:51:45;;;;;;;4.72;3.55;;;13.10;99.90;;;;;;2072073;28;20034;-69
2021/08/25 02:52:45;;;;;;;4.53;3.42;;;13.10;99.90;;;;;;2072397;28;20378;-69
2021/08/25 02:53:46;;;;;;;5.45;3.78;;;13.00;99.90;;;;;;2071694;28;20030;-69
2021/08/25 02:54:46;;;;;;;8.02;4.00;;;13.00;99.90;;;;;;2072435;28;20052;-69
2021/08/25 02:55:47;;;;;;;5.00;3.75;;;13.00;99.90;;;;;;2078788;28;20037;-69
2021/08/25 02:56:47;;;;;;;5.63;4.18;;;13.00;99.90;;;;;;2072620;28;20049;-69
2021/08/25 02:57:48;;;;;;;3.90;3.42;;;13.00;99.90;;;;;;2071483;28;20037;-69
2021/08/25 02:58:48;;;;;;;7.63;4.05;;;13.00;99.90;;;;;;2072613;28;20093;-69
2021/08/25 02:59:49;;;;;;;4.32;3.53;;;13.00;99.90;;;;;;2072712;28;20066;-69
2021/08/25 03:00:50;;;;;;;5.55;3.65;;;13.00;99.90;;;;;;2072724;28;20029;-69
2021/08/25 03:01:50;;;;;;;4.13;3.10;;;12.90;99.90;;;;;;2071985;28;20053;-69
2021/08/25 03:02:51;;;;;;;5.35;4.18;;;12.90;99.90;;;;;;2072454;28;20119;-69
2021/08/25 03:03:52;;;;;;;4.70;3.83;;;12.90;99.90;;;;;;2072613;28;20022;-69
2021/08/25 03:04:53;;;;;;;4.25;3.28;;;13.00;99.90;;;;;;2072599;28;20058;-69
2021/08/25 03:05:54;;;;;;;5.47;3.63;;;12.90;99.90;;;;;;2072587;28;20053;-69
2021/08/25 03:06:54;;;;;;;6.80;3.70;;;12.90;99.90;;;;;;2072434;28;20478;-69
2021/08/25 03:07:55;;;;;;;8.80;4.10;;;12.90;99.90;;;;;;2072149;28;20584;-69
2021/08/25 03:08:55;;;;;;;5.90;4.10;;;12.90;99.90;;;;;;2073265;28;20033;-69
2021/08/25 03:09:56;;;;;;;5.03;3.88;;;12.90;99.90;;;;;;2075843;28;20045;-69
2021/08/25 03:10:56;;;;;;;4.43;3.72;;;12.90;99.90;;;;;;2072373;28;20517;-69
2021/08/25 03:11:57;;;;;;;5.93;4.53;;;12.90;99.90;;;;;;2071470;28;20374;-69
2021/08/25 03:12:57;;;;;;;7.15;4.43;;;12.90;99.90;;;;;;2071623;28;20128;-69
2021/08/25 03:13:58;;;;;;;5.93;3.85;;;12.90;99.90;;;;;;2072267;28;20096;-69
2021/08/25 03:14:58;;;;;;;5.32;4.00;;;12.90;99.90;;;;;;2072539;28;20514;-69
2021/08/25 03:15:59;;;;;;;4.75;3.80;;;12.90;99.90;;;;;;2072507;28;20037;-69
2021/08/25 03:17:00;;;;;;;6.43;4.22;;;12.80;99.90;;;;;;2072237;28;20022;-69
2021/08/25 03:18:00;;;;;;;5.65;4.28;;;12.80;99.90;;;;;;2072310;28;20065;-69
2021/08/25 03:19:01;;;;;;;5.63;3.90;;;12.90;99.90;;;;;;2072071;28;20446;-69
2021/08/25 03:20:03;;;;;;;5.60;3.95;;;12.80;99.90;;;;;;2071941;28;20026;-69
2021/08/25 03:21:03;;;;;;;5.47;3.58;;;12.80;99.90;;;;;;2072628;28;20076;-69
2021/08/25 03:22:04;;;;;;;5.95;3.83;;;12.80;99.90;;;;;;2072157;28;20270;-69
2021/08/25 03:23:04;;;;;;;4.97;3.83;;;12.80;99.90;;;;;;2072721;28;20041;-69
2021/08/25 03:24:05;;;;;;;7.50;5.00;;;12.80;99.90;;;;;;2072399;28;20474;-69
2021/08/25 03:25:08;;;;;;;4.50;4.10;;;12.80;99.90;;;;;;2079923;28;20064;-69
2021/08/25 03:26:08;;;;;;;5.95;3.97;;;12.80;99.90;;;;;;2079326;28;20381;-69
2021/08/25 03:27:09;;;;;;;5.00;4.10;;;12.80;99.90;;;;;;2076585;28;20033;-69
2021/08/25 03:28:09;;;;;;;5.45;3.75;;;12.80;99.90;;;;;;2069845;28;20026;-69
2021/08/25 03:29:10;;;;;;;9.60;4.35;;;12.80;99.90;;;;;;2072463;28;20030;-69
2021/08/25 03:30:11;;;;;;;3.72;3.08;;;12.80;99.90;;;;;;2072773;28;20382;-69
2021/08/25 03:31:12;;;;;;;7.15;3.63;;;12.80;99.90;;;;;;2072119;28;20403;-69
2021/08/25 03:32:12;;;;;;;4.28;3.58;;;12.80;99.90;;;;;;2072209;28;20029;-69
2021/08/25 03:33:13;;;;;;;6.90;4.00;;;12.70;99.90;;;;;;2072249;28;20105;-69
2021/08/25 03:34:13;;;;;;;6.60;4.65;;;12.70;99.90;;;;;;2072329;28;20022;-69
2021/08/25 03:35:14;;;;;;;8.25;4.22;;;12.70;99.90;;;;;;2072251;28;20109;-69
2021/08/25 03:36:15;;;;;;;5.22;3.97;;;12.70;99.90;;;;;;2072862;28;21007;-69
2021/08/25 03:37:16;;;;;;;7.88;4.00;;;12.70;99.90;;;;;;2074141;28;20042;-69
2021/08/25 03:38:17;;;;;;;6.75;4.22;;;12.70;99.90;;;;;;2069066;28;20018;-69
2021/08/25 03:39:17;;;;;;;5.25;4.30;;;12.70;99.90;;;;;;2072073;28;20018;-69
2021/08/25 03:40:18;;;;;;;4.90;3.55;;;12.70;99.90;;;;;;2072442;28;20080;-69
2021/08/25 03:41:18;;;;;;;4.97;3.88;;;12.70;99.90;;;;;;2071656;28;20033;-69
2021/08/25 03:42:19;;;;;;;5.45;4.15;;;12.70;99.90;;;;;;2071254;28;20022;-69
2021/08/25 03:43:20;;;;;;;5.13;3.95;;;12.70;99.90;;;;;;2072220;28;20037;-69
2021/08/25 03:44:20;;;;;;;5.05;4.43;;;12.70;99.90;;;;;;2072391;28;20018;-69
2021/08/25 03:45:21;;;;;;;7.25;4.07;;;12.60;99.90;;;;;;2072422;28;20101;-69
2021/08/25 03:46:21;;;;;;;5.88;4.30;;;12.70;99.90;;;;;;2071840;28;20034;-69
2021/08/25 03:47:22;;;;;;;4.95;3.60;;;12.70;99.90;;;;;;2072008;28;20040;-69
2021/08/25 03:48:22;;;;;;;5.28;3.83;;;12.60;99.90;;;;;;2072197;28;20111;-69
2021/08/25 03:49:23;;;;;;;4.88;4.38;;;12.60;99.90;;;;;;2072156;28;20394;-69
2021/08/25 03:50:23;;;;;;;5.63;4.40;;;12.60;99.90;;;;;;2075221;28;20034;-69
2021/08/25 03:51:24;;;;;;;5.47;4.25;;;12.60;99.90;;;;;;2080195;28;20025;-69
2021/08/25 03:52:25;;;;;;;5.97;4.55;;;12.60;99.90;;;;;;2072008;28;20025;-69
2021/08/25 03:53:25;;;;;;;5.47;3.90;;;12.60;99.90;;;;;;2071967;28;20026;-69
2021/08/25 03:54:27;;;;;;;6.18;3.97;;;12.60;99.90;;;;;;2072143;28;20033;-69
2021/08/25 03:55:28;;;;;;;3.83;3.45;;;12.60;99.90;;;;;;2072386;28;20490;-69
2021/08/25 03:56:28;;;;;;;6.43;4.35;;;12.60;99.90;;;;;;2071879;28;20407;-69
2021/08/25 03:57:29;;;;;;;5.18;3.88;;;12.60;99.90;;;;;;2072160;28;20057;-69
2021/08/25 03:58:29;;;;;;;6.22;3.67;;;12.60;99.90;;;;;;2072102;28;20062;-69
2021/08/25 03:59:30;;;;;;;5.15;4.03;;;12.60;99.90;;;;;;2071687;28;20036;-69
2021/08/25 04:00:31;;;;;;;5.68;3.92;;;12.60;99.90;;;;;;2072247;28;20036;-69
2021/08/25 04:01:31;;;;;;;6.05;4.20;;;12.60;99.90;;;;;;2068255;28;20109;-69
2021/08/25 04:02:32;;;;;;;5.25;4.20;;;12.60;99.90;;;;;;2072011;28;20121;-69
2021/08/25 04:03:32;;;;;;;6.15;4.50;;;12.60;99.90;;;;;;2071905;28;20041;-69
2021/08/25 04:04:33;;;;;;;6.15;4.55;;;12.50;99.90;;;;;;2076494;28;20116;-69
2021/08/25 04:05:33;;;;;;;6.40;3.97;;;12.50;99.90;;;;;;2072482;28;20103;-69
2021/08/25 04:06:38;;;;;;;5.60;4.35;;;12.50;99.90;;;;;;2072028;28;20100;-69
2021/08/25 04:07:38;;;;;;;8.20;4.65;;;12.50;99.90;;;;;;2072294;28;20033;-69
2021/08/25 04:08:39;;;;;;;7.88;4.55;;;12.50;99.90;;;;;;2072001;28;20049;-69
2021/08/25 04:09:40;;;;;;;4.75;3.83;;;12.50;99.90;;;;;;2071381;28;20033;-69
2021/08/25 04:10:41;;;;;;;9.00;4.47;;;12.50;99.90;;;;;;2071765;28;20072;-69
2021/08/25 04:11:41;;;;;;;9.45;5.43;;;12.50;99.90;;;;;;2071795;28;20091;-69
2021/08/25 04:12:42;;;;;;;4.78;4.35;;;12.40;99.90;;;;;;2071527;28;20022;-69
2021/08/25 04:13:42;;;;;;;4.30;3.90;;;12.50;99.90;;;;;;2072138;28;20372;-69
2021/08/25 04:14:43;;;;;;;5.82;4.60;;;12.50;99.90;;;;;;2072027;28;20037;-69
2021/08/25 04:15:43;;;;;;;5.20;3.95;;;12.40;99.90;;;;;;2071814;28;20053;-69
2021/08/25 04:16:44;;;;;;;5.10;4.60;;;12.40;99.90;;;;;;2071823;28;20104;-69
2021/08/25 04:17:44;;;;;;;5.57;4.20;;;12.40;99.90;;;;;;2073337;28;20093;-69
2021/08/25 04:18:45;;;;;;;6.05;4.05;;;12.40;99.90;;;;;;2077063;28;20347;-69
2021/08/25 04:19:45;;;;;;;5.72;4.65;;;12.40;99.90;;;;;;2071731;28;20029;-69
2021/08/25 04:20:46;;;;;;;4.90;4.13;;;12.40;99.90;;;;;;2072086;28;20139;-69
2021/08/25 04:21:47;;;;;;;7.18;5.05;;;12.40;99.90;;;;;;2071682;28;20498;-69
2021/08/25 04:22:47;;;;;;;6.65;4.03;;;12.40;99.90;;;;;;2071585;28;20109;-69
2021/08/25 04:23:48;;;;;;;4.97;4.20;;;12.40;99.90;;;;;;2071982;28;20088;-68
2021/08/25 04:24:48;;;;;;;6.70;4.68;;;12.40;99.90;;;;;;2072160;28;20431;-69
2021/08/25 04:25:49;;;;;;;6.95;4.68;;;12.40;99.90;;;;;;2071990;28;20022;-69
2021/08/25 04:26:49;;;;;;;5.57;4.50;;;12.40;99.90;;;;;;2071914;28;20030;-69
2021/08/25 04:27:50;;;;;;;5.53;4.55;;;12.40;99.90;;;;;;2071704;28;20034;-69
2021/08/25 04:28:50;;;;;;;7.45;4.97;;;12.40;99.90;;;;;;2071968;28;20034;-69
2021/08/25 04:29:51;;;;;;;6.30;4.35;;;12.40;99.90;;;;;;2071804;28;20459;-70
2021/08/25 04:30:51;;;;;;;6.25;4.88;;;12.40;99.90;;;;;;2071892;28;20117;-69
2021/08/25 04:31:52;;;;;;;7.15;4.70;;;12.40;99.90;;;;;;2072172;28;20087;-69
2021/08/25 04:32:52;;;;;;;6.97;5.05;;;12.40;99.90;;;;;;2071350;28;20076;-69
2021/08/25 04:33:53;;;;;;;9.18;5.25;;;12.40;99.90;;;;;;2071798;28;20490;-69
2021/08/25 04:34:54;;;;;;;7.80;5.32;;;12.30;99.90;;;;;;2072139;28;20026;-69
2021/08/25 04:35:54;;;;;;;6.50;5.05;;;12.30;99.90;;;;;;2071754;28;20478;-69
2021/08/25 04:36:55;;;;;;;5.82;5.05;;;12.30;99.90;;;;;;2071897;28;20513;-69
2021/08/25 04:37:55;;;;;;;8.05;5.40;;;12.40;99.90;;;;;;2071451;28;20148;-69
2021/08/25 04:38:56;;;;;;;6.95;5.18;;;12.30;99.90;;;;;;2071745;28;20018;-69
2021/08/25 04:39:56;;;;;;;4.70;4.20;;;12.40;99.90;;;;;;2071857;28;20034;-69
2021/08/25 04:40:58;;;;;;;11.38;5.40;;;12.30;99.90;;;;;;2071959;28;20101;-69
2021/08/25 04:42:02;;;;;;;6.25;5.38;;;12.30;99.90;;;;;;2071082;28;20040;-69
2021/08/25 04:43:02;;;;;;;7.00;5.60;;;12.30;99.90;;;;;;2071482;28;20426;-69
2021/08/25 04:44:03;;;;;;;7.57;5.25;;;12.30;99.90;;;;;;2071520;28;20438;-69
2021/08/25 04:45:04;;;;;;;8.93;5.18;;;12.30;99.90;;;;;;2071089;28;20446;-69
2021/08/25 04:46:05;;;;;;;8.65;5.78;;;12.40;99.90;;;;;;2079202;28;20053;-69
2021/08/25 04:47:05;;;;;;;7.25;5.32;;;12.30;99.90;;;;;;2075386;28;20018;-69
2021/08/25 04:48:06;;;;;;;7.30;5.15;;;12.40;99.90;;;;;;2071313;28;20536;-69
2021/08/25 04:49:07;;;;;;;7.45;5.05;;;12.30;99.90;;;;;;2071608;28;20121;-69
2021/08/25 04:50:08;;;;;;;6.60;5.28;;;12.30;99.90;;;;;;2071614;28;20018;-69
2021/08/25 04:51:11;;;;;;;9.75;5.38;;;12.30;99.90;;;;;;2071913;28;20033;-69
2021/08/25 04:52:13;;;;;;;6.50;4.88;;;12.30;99.90;;;;;;2071454;28;20026;-69
2021/08/25 04:53:14;;;;;;;7.10;5.50;;;12.30;99.90;;;;;;2071445;28;20022;-69
2021/08/25 04:54:15;;;;;;;7.78;5.75;;;12.30;99.90;;;;;;2072002;28;20053;-69
2021/08/25 04:55:15;;;;;;;8.07;6.00;;;12.30;99.90;;;;;;2071775;28;20056;-69
2021/08/25 04:56:16;;;;;;;6.45;5.32;;;12.30;99.90;;;;;;2071354;28;20026;-69
2021/08/25 04:57:16;;;;;;;6.78;5.68;;;12.30;99.90;;;;;;2070719;28;20434;-69
2021/08/25 04:58:17;;;;;;;8.68;5.93;;;12.40;99.90;;;;;;2071226;28;20014;-69
2021/08/25 04:59:17;;;;;;;6.38;5.57;;;12.30;99.90;;;;;;2075685;28;20014;-69
2021/08/25 05:00:18;;;;;;;8.48;5.50;;;12.30;99.90;;;;;;2072946;28;20430;-69
2021/08/25 05:01:19;;;;;;;6.82;6.00;;;12.30;99.90;;;;;;2070785;28;20427;-69
2021/08/25 05:02:19;;;;;;;7.75;5.50;;;12.40;99.90;;;;;;2071398;28;20045;-68
2021/08/25 05:03:20;;;;;;;7.78;5.38;;;12.30;99.90;;;;;;2070391;28;20022;-69
2021/08/25 05:04:20;;;;;;;7.97;5.68;;;12.40;99.90;;;;;;2070999;28;20732;-69
2021/08/25 05:05:21;;;;;;;8.30;5.65;;;12.30;99.90;;;;;;2070951;28;20037;-69
2021/08/25 05:06:21;;;;;;;7.38;5.32;;;12.40;99.90;;;;;;2066003;28;20061;-69
2021/08/25 05:07:22;;;;;;;7.57;5.95;;;12.40;99.90;;;;;;2070510;28;20364;-69
2021/08/25 05:08:23;;;;;;;16.05;6.60;;;12.40;99.90;;;;;;2071223;28;20084;-68
2021/08/25 05:09:24;;;;;;;8.70;6.40;;;12.40;99.90;;;;;;2071525;28;20026;-68
2021/08/25 05:10:24;;;;;;;9.40;6.60;;;12.40;99.90;;;;;;2071734;28;20556;-68
2021/08/25 05:11:25;;;;;;;7.55;5.70;;;12.40;99.90;;;;;;2071050;28;20063;-69
2021/08/25 05:12:26;;;;;;;6.85;5.85;;;12.40;99.90;;;;;;2069894;28;20036;-69
2021/08/25 05:13:26;;;;;;;8.38;6.50;;;12.40;99.90;;;;;;2070135;28;20041;-69
2021/08/25 05:14:27;;;;;;;7.78;5.85;;;12.40;99.90;;;;;;2071743;28;20513;-69
2021/08/25 05:15:28;;;;;;;8.18;6.70;;;12.40;99.90;;;;;;2071635;28;20018;-69
2021/08/25 05:16:28;;;;;;;8.45;6.88;;;12.40;99.90;;;;;;2071437;28;20022;-68
2021/08/25 05:17:29;;;;;;;7.93;5.88;;;12.40;99.90;;;;;;2070865;28;20502;-68
2021/08/25 05:18:30;;;;;;;10.23;6.32;;;12.40;99.90;;;;;;2070878;28;20524;-68